sensor_id;sensor_type;location;lat;lon;timestamp;pressure;altitude;pressure_sealevel;temperature;humidity
24752;BME280;27246;52.376;4.628;2023-01-29T00:04:14;102871.56;;;4.27;84.41
24752;BME280;27246;52.376;4.628;2023-01-29T00:09:16;102859.09;;;4.22;84.06
24752;BME280;27246;52.376;4.628;2023-01-29T00:14:18;102855.00;;;4.15;84.60
24752;BME280;27246;52.376;4.628;2023-01-29T00:19:20;102849.16;;;4.21;84.10
24752;BME280;27246;52.376;4.628;2023-01-29T00:24:22;102837.47;;;4.19;83.85
24752;BME280;27246;52.376;4.628;2023-01-29T00:29:23;102828.50;;;4.17;83.53
24752;BME280;27246;52.376;4.628;2023-01-29T00:34:25;102812.03;;;4.19;83.28
24752;BME280;27246;52.376;4.628;2023-01-29T00:39:27;102821.75;;;4.09;83.19
24752;BME280;27246;52.376;4.628;2023-01-29T00:44:48;102827.41;;;4.06;83.58
24752;BME280;27246;52.376;4.628;2023-01-29T00:50:09;102831.59;;;4.11;83.64
24752;BME280;27246;52.376;4.628;2023-01-29T00:55:11;102833.34;;;4.12;83.16
24752;BME280;27246;52.376;4.628;2023-01-29T01:00:15;102832.28;;;4.15;82.99
24752;BME280;27246;52.376;4.628;2023-01-29T01:05:18;102829.28;;;4.19;83.15
24752;BME280;27246;52.376;4.628;2023-01-29T01:10:26;102829.09;;;4.22;83.07
24752;BME280;27246;52.376;4.628;2023-01-29T01:15:35;102835.72;;;4.33;82.59
24752;BME280;27246;52.376;4.628;2023-01-29T01:20:37;102828.72;;;4.43;81.50
24752;BME280;27246;52.376;4.628;2023-01-29T01:25:39;102822.47;;;4.41;81.52
24752;BME280;27246;52.376;4.628;2023-01-29T01:30:41;102827.00;;;4.56;81.20
24752;BME280;27246;52.376;4.628;2023-01-29T01:35:43;102827.38;;;4.50;81.08
24752;BME280;27246;52.376;4.628;2023-01-29T01:40:45;102813.91;;;4.47;81.05
24752;BME280;27246;52.376;4.628;2023-01-29T01:45:47;102817.63;;;4.60;80.43
24752;BME280;27246;52.376;4.628;2023-01-29T01:50:52;102812.56;;;4.54;79.67
24752;BME280;27246;52.376;4.628;2023-01-29T01:55:59;102809.84;;;4.54;79.56
24752;BME280;27246;52.376;4.628;2023-01-29T02:01:04;102811.00;;;4.50;79.70
24752;BME280;27246;52.376;4.628;2023-01-29T02:06:07;102804.69;;;4.50;79.88
24752;BME280;27246;52.376;4.628;2023-01-29T02:11:29;102812.75;;;4.51;79.93
24752;BME280;27246;52.376;4.628;2023-01-29T02:16:33;102810.31;;;4.61;79.63
24752;BME280;27246;52.376;4.628;2023-01-29T02:26:49;102826.59;;;4.63;80.56
24752;BME280;27246;52.376;4.628;2023-01-29T02:37:08;102813.22;;;4.87;80.29
24752;BME280;27246;52.376;4.628;2023-01-29T02:42:19;102804.44;;;4.81;80.28
24752;BME280;27246;52.376;4.628;2023-01-29T02:47:33;102798.72;;;4.72;80.59
24752;BME280;27246;52.376;4.628;2023-01-29T02:58:32;102795.97;;;4.57;81.23
24752;BME280;27246;52.376;4.628;2023-01-29T03:03:44;102791.31;;;4.59;81.42
24752;BME280;27246;52.376;4.628;2023-01-29T03:08:57;102770.44;;;4.58;81.67
24752;BME280;27246;52.376;4.628;2023-01-29T03:14:05;102767.53;;;4.76;81.34
24752;BME280;27246;52.376;4.628;2023-01-29T03:19:15;102766.25;;;4.67;80.92
24752;BME280;27246;52.376;4.628;2023-01-29T03:24:44;102768.13;;;4.52;81.23
24752;BME280;27246;52.376;4.628;2023-01-29T03:30:09;102757.91;;;4.41;82.14
24752;BME280;27246;52.376;4.628;2023-01-29T03:35:46;102749.59;;;4.43;82.70
24752;BME280;27246;52.376;4.628;2023-01-29T03:46:29;102757.00;;;4.41;83.04
24752;BME280;27246;52.376;4.628;2023-01-29T03:51:42;102760.13;;;4.35;83.35
24752;BME280;27246;52.376;4.628;2023-01-29T04:02:07;102756.22;;;4.25;83.46
24752;BME280;27246;52.376;4.628;2023-01-29T04:07:16;102744.25;;;4.27;83.70
24752;BME280;27246;52.376;4.628;2023-01-29T04:12:25;102729.31;;;4.18;83.89
24752;BME280;27246;52.376;4.628;2023-01-29T04:17:38;102728.38;;;4.19;84.14
24752;BME280;27246;52.376;4.628;2023-01-29T04:22:54;102720.28;;;4.18;84.33
24752;BME280;27246;52.376;4.628;2023-01-29T04:28:04;102719.00;;;4.09;84.59
24752;BME280;27246;52.376;4.628;2023-01-29T04:44:12;102700.69;;;4.11;84.89
24752;BME280;27246;52.376;4.628;2023-01-29T04:49:31;102690.75;;;4.10;85.07
24752;BME280;27246;52.376;4.628;2023-01-29T04:54:49;102684.72;;;4.05;85.40
24752;BME280;27246;52.376;4.628;2023-01-29T05:04:58;102695.91;;;4.00;85.14
24752;BME280;27246;52.376;4.628;2023-01-29T05:10:05;102696.50;;;4.06;85.51
24752;BME280;27246;52.376;4.628;2023-01-29T05:15:11;102689.78;;;4.11;85.24
24752;BME280;27246;52.376;4.628;2023-01-29T05:20:14;102678.88;;;4.11;85.01
24752;BME280;27246;52.376;4.628;2023-01-29T05:25:26;102661.16;;;4.04;85.19
24752;BME280;27246;52.376;4.628;2023-01-29T05:30:29;102669.03;;;4.09;85.21
24752;BME280;27246;52.376;4.628;2023-01-29T05:35:31;102658.88;;;4.11;85.38
24752;BME280;27246;52.376;4.628;2023-01-29T05:40:32;102666.69;;;4.17;85.15
24752;BME280;27246;52.376;4.628;2023-01-29T05:45:34;102669.72;;;4.12;85.57
24752;BME280;27246;52.376;4.628;2023-01-29T05:50:36;102656.06;;;4.12;86.13
24752;BME280;27246;52.376;4.628;2023-01-29T05:55:37;102658.63;;;4.15;86.78
24752;BME280;27246;52.376;4.628;2023-01-29T06:00:40;102650.03;;;4.21;87.16
24752;BME280;27246;52.376;4.628;2023-01-29T06:05:42;102643.91;;;4.18;87.89
24752;BME280;27246;52.376;4.628;2023-01-29T06:10:43;102633.00;;;4.18;88.45
24752;BME280;27246;52.376;4.628;2023-01-29T06:15:45;102638.13;;;4.22;88.49
24752;BME280;27246;52.376;4.628;2023-01-29T06:20:47;102619.34;;;4.18;89.19
24752;BME280;27246;52.376;4.628;2023-01-29T06:25:48;102620.44;;;4.15;90.42
24752;BME280;27246;52.376;4.628;2023-01-29T06:30:50;102615.94;;;4.14;91.39
24752;BME280;27246;52.376;4.628;2023-01-29T06:35:58;102617.13;;;4.10;92.37
24752;BME280;27246;52.376;4.628;2023-01-29T06:41:08;102615.53;;;4.20;92.51
24752;BME280;27246;52.376;4.628;2023-01-29T06:46:10;102622.28;;;4.29;93.91
24752;BME280;27246;52.376;4.628;2023-01-29T06:51:12;102606.16;;;4.39;94.69
24752;BME280;27246;52.376;4.628;2023-01-29T06:56:13;102602.72;;;4.50;95.07
24752;BME280;27246;52.376;4.628;2023-01-29T07:01:15;102612.56;;;4.52;95.14
24752;BME280;27246;52.376;4.628;2023-01-29T07:06:35;102618.13;;;4.51;95.42
24752;BME280;27246;52.376;4.628;2023-01-29T07:11:37;102622.25;;;4.44;95.59
24752;BME280;27246;52.376;4.628;2023-01-29T07:16:39;102613.38;;;4.40;96.26
24752;BME280;27246;52.376;4.628;2023-01-29T07:21:40;102619.22;;;4.34;97.78
24752;BME280;27246;52.376;4.628;2023-01-29T07:26:42;102612.22;;;4.30;98.52
24752;BME280;27246;52.376;4.628;2023-01-29T07:31:44;102600.63;;;4.26;98.71
24752;BME280;27246;52.376;4.628;2023-01-29T07:36:45;102604.63;;;4.20;99.08
24752;BME280;27246;52.376;4.628;2023-01-29T07:41:47;102599.78;;;4.26;99.18
24752;BME280;27246;52.376;4.628;2023-01-29T07:46:49;102584.94;;;4.30;99.48
24752;BME280;27246;52.376;4.628;2023-01-29T07:51:51;102588.03;;;4.38;99.06
24752;BME280;27246;52.376;4.628;2023-01-29T07:56:53;102574.09;;;4.43;98.17
24752;BME280;27246;52.376;4.628;2023-01-29T08:01:56;102567.75;;;4.42;97.97
24752;BME280;27246;52.376;4.628;2023-01-29T08:06:58;102562.22;;;4.44;97.72
24752;BME280;27246;52.376;4.628;2023-01-29T08:11:59;102567.41;;;4.34;98.08
24752;BME280;27246;52.376;4.628;2023-01-29T08:17:01;102568.38;;;4.33;98.51
24752;BME280;27246;52.376;4.628;2023-01-29T08:22:04;102561.72;;;4.37;98.43
24752;BME280;27246;52.376;4.628;2023-01-29T08:27:06;102572.75;;;4.35;97.82
24752;BME280;27246;52.376;4.628;2023-01-29T08:32:10;102556.41;;;4.35;97.64
24752;BME280;27246;52.376;4.628;2023-01-29T08:37:12;102554.22;;;4.40;97.33
24752;BME280;27246;52.376;4.628;2023-01-29T08:42:14;102551.34;;;4.56;97.22
24752;BME280;27246;52.376;4.628;2023-01-29T08:47:16;102544.59;;;4.62;97.10
24752;BME280;27246;52.376;4.628;2023-01-29T08:52:17;102547.78;;;4.69;97.29
24752;BME280;27246;52.376;4.628;2023-01-29T08:57:20;102538.41;;;4.73;97.69
24752;BME280;27246;52.376;4.628;2023-01-29T09:02:21;102545.19;;;4.80;97.20
24752;BME280;27246;52.376;4.628;2023-01-29T09:07:23;102540.50;;;4.82;97.81
24752;BME280;27246;52.376;4.628;2023-01-29T09:12:25;102538.13;;;4.90;97.82
24752;BME280;27246;52.376;4.628;2023-01-29T09:17:26;102538.88;;;4.92;97.18
24752;BME280;27246;52.376;4.628;2023-01-29T09:22:28;102532.66;;;4.90;96.85
24752;BME280;27246;52.376;4.628;2023-01-29T09:27:29;102539.75;;;4.93;95.94
24752;BME280;27246;52.376;4.628;2023-01-29T09:32:32;102540.63;;;4.93;95.17
24752;BME280;27246;52.376;4.628;2023-01-29T09:37:54;102533.22;;;4.95;94.58
24752;BME280;27246;52.376;4.628;2023-01-29T09:43:45;102527.56;;;4.98;93.97
24752;BME280;27246;52.376;4.628;2023-01-29T09:48:56;102523.66;;;5.03;94.41
24752;BME280;27246;52.376;4.628;2023-01-29T09:54:12;102503.09;;;4.97;94.92
24752;BME280;27246;52.376;4.628;2023-01-29T09:59:17;102504.16;;;4.94;93.48
24752;BME280;27246;52.376;4.628;2023-01-29T10:04:46;102507.19;;;4.90;93.93
24752;BME280;27246;52.376;4.628;2023-01-29T10:10:18;102502.00;;;4.99;94.46
24752;BME280;27246;52.376;4.628;2023-01-29T10:15:34;102500.25;;;4.98;95.73
24752;BME280;27246;52.376;4.628;2023-01-29T10:26:10;102496.34;;;5.03;94.37
24752;BME280;27246;52.376;4.628;2023-01-29T10:31:30;102490.31;;;4.97;93.59
24752;BME280;27246;52.376;4.628;2023-01-29T10:36:45;102494.81;;;4.98;93.25
24752;BME280;27246;52.376;4.628;2023-01-29T10:58:43;102475.56;;;5.13;92.94
24752;BME280;27246;52.376;4.628;2023-01-29T11:04:00;102450.56;;;5.06;93.59
24752;BME280;27246;52.376;4.628;2023-01-29T11:09:07;102444.75;;;5.11;94.07
24752;BME280;27246;52.376;4.628;2023-01-29T11:14:37;102444.97;;;5.08;94.07
24752;BME280;27246;52.376;4.628;2023-01-29T11:19:41;102439.50;;;5.08;93.96
24752;BME280;27246;52.376;4.628;2023-01-29T11:24:44;102431.22;;;5.09;94.17
24752;BME280;27246;52.376;4.628;2023-01-29T11:29:46;102428.91;;;5.03;93.69
24752;BME280;27246;52.376;4.628;2023-01-29T11:35:02;102421.16;;;5.10;93.00
24752;BME280;27246;52.376;4.628;2023-01-29T11:45:26;102398.66;;;5.19;92.56
24752;BME280;27246;52.376;4.628;2023-01-29T11:50:31;102400.16;;;5.23;92.94
24752;BME280;27246;52.376;4.628;2023-01-29T11:55:35;102384.13;;;5.18;92.70
24752;BME280;27246;52.376;4.628;2023-01-29T12:00:51;102377.91;;;5.16;93.65
24752;BME280;27246;52.376;4.628;2023-01-29T12:06:11;102374.72;;;5.10;94.80
24752;BME280;27246;52.376;4.628;2023-01-29T12:11:24;102363.59;;;5.13;96.11
24752;BME280;27246;52.376;4.628;2023-01-29T12:16:58;102349.69;;;5.16;96.86
24752;BME280;27246;52.376;4.628;2023-01-29T12:27:23;102317.81;;;5.16;98.46
24752;BME280;27246;52.376;4.628;2023-01-29T12:38:17;102296.25;;;5.12;99.36
24752;BME280;27246;52.376;4.628;2023-01-29T12:43:25;102280.63;;;5.14;99.73
24752;BME280;27246;52.376;4.628;2023-01-29T12:48:33;102264.94;;;5.05;100.00
24752;BME280;27246;52.376;4.628;2023-01-29T12:58:51;102235.78;;;4.92;100.00
24752;BME280;27246;52.376;4.628;2023-01-29T13:04:02;102228.06;;;4.86;100.00
24752;BME280;27246;52.376;4.628;2023-01-29T13:09:12;102221.06;;;4.82;100.00
24752;BME280;27246;52.376;4.628;2023-01-29T13:14:22;102204.91;;;4.79;100.00
24752;BME280;27246;52.376;4.628;2023-01-29T13:19:33;102189.00;;;4.73;100.00
24752;BME280;27246;52.376;4.628;2023-01-29T13:24:39;102179.38;;;4.80;100.00
24752;BME280;27246;52.376;4.628;2023-01-29T13:29:43;102174.22;;;4.75;100.00
24752;BME280;27246;52.376;4.628;2023-01-29T13:34:56;102178.47;;;4.79;100.00
24752;BME280;27246;52.376;4.628;2023-01-29T13:40:00;102168.91;;;4.74;100.00
24752;BME280;27246;52.376;4.628;2023-01-29T13:45:05;102162.00;;;4.81;100.00
24752;BME280;27246;52.376;4.628;2023-01-29T13:50:12;102161.22;;;4.79;100.00
24752;BME280;27246;52.376;4.628;2023-01-29T14:10:33;102108.91;;;4.85;100.00
24752;BME280;27246;52.376;4.628;2023-01-29T14:15:36;102120.09;;;4.93;100.00
24752;BME280;27246;52.376;4.628;2023-01-29T14:25:47;102111.91;;;4.93;100.00
24752;BME280;27246;52.376;4.628;2023-01-29T14:30:50;102091.53;;;4.86;100.00
24752;BME280;27246;52.376;4.628;2023-01-29T14:35:55;102087.59;;;4.90;100.00
24752;BME280;27246;52.376;4.628;2023-01-29T14:46:42;102084.44;;;4.84;100.00
24752;BME280;27246;52.376;4.628;2023-01-29T14:51:44;102075.84;;;4.77;100.00
24752;BME280;27246;52.376;4.628;2023-01-29T14:56:58;102079.97;;;4.82;100.00
24752;BME280;27246;52.376;4.628;2023-01-29T15:02:12;102077.63;;;4.78;100.00
24752;BME280;27246;52.376;4.628;2023-01-29T15:07:19;102072.38;;;4.75;100.00
24752;BME280;27246;52.376;4.628;2023-01-29T15:22:49;102063.22;;;4.76;100.00
24752;BME280;27246;52.376;4.628;2023-01-29T15:27:52;102067.78;;;4.75;100.00
24752;BME280;27246;52.376;4.628;2023-01-29T15:32:55;102070.00;;;4.70;100.00
24752;BME280;27246;52.376;4.628;2023-01-29T15:37:59;102072.63;;;4.72;100.00
24752;BME280;27246;52.376;4.628;2023-01-29T15:43:01;102064.06;;;4.76;100.00
24752;BME280;27246;52.376;4.628;2023-01-29T15:48:06;102052.69;;;4.82;100.00
24752;BME280;27246;52.376;4.628;2023-01-29T15:53:17;102048.94;;;4.84;100.00
24752;BME280;27246;52.376;4.628;2023-01-29T15:58:26;102048.09;;;4.83;100.00
24752;BME280;27246;52.376;4.628;2023-01-29T16:03:31;102038.94;;;4.84;100.00
24752;BME280;27246;52.376;4.628;2023-01-29T16:08:34;102036.69;;;4.89;100.00
24752;BME280;27246;52.376;4.628;2023-01-29T16:13:38;102033.03;;;4.77;100.00
24752;BME280;27246;52.376;4.628;2023-01-29T16:18:45;102024.28;;;4.85;100.00
24752;BME280;27246;52.376;4.628;2023-01-29T16:24:12;102018.16;;;4.81;100.00
24752;BME280;27246;52.376;4.628;2023-01-29T16:29:19;102018.81;;;4.85;100.00
24752;BME280;27246;52.376;4.628;2023-01-29T16:34:35;102021.97;;;4.92;100.00
24752;BME280;27246;52.376;4.628;2023-01-29T16:39:43;102018.34;;;4.91;100.00
24752;BME280;27246;52.376;4.628;2023-01-29T16:50:30;102019.22;;;4.92;100.00
24752;BME280;27246;52.376;4.628;2023-01-29T16:56:03;102013.59;;;4.82;100.00
24752;BME280;27246;52.376;4.628;2023-01-29T17:01:08;102003.94;;;4.89;100.00
24752;BME280;27246;52.376;4.628;2023-01-29T17:06:17;101997.38;;;4.92;100.00
24752;BME280;27246;52.376;4.628;2023-01-29T17:11:38;101990.47;;;4.99;100.00
24752;BME280;27246;52.376;4.628;2023-01-29T17:17:06;101979.44;;;5.00;100.00
24752;BME280;27246;52.376;4.628;2023-01-29T17:22:08;101975.41;;;4.93;100.00
24752;BME280;27246;52.376;4.628;2023-01-29T17:27:19;101964.66;;;5.03;100.00
24752;BME280;27246;52.376;4.628;2023-01-29T17:32:23;101963.19;;;5.10;100.00
24752;BME280;27246;52.376;4.628;2023-01-29T17:37:44;101945.06;;;5.09;100.00
24752;BME280;27246;52.376;4.628;2023-01-29T17:42:46;101941.94;;;5.14;100.00
24752;BME280;27246;52.376;4.628;2023-01-29T17:47:47;101937.50;;;5.13;100.00
24752;BME280;27246;52.376;4.628;2023-01-29T17:52:49;101947.28;;;5.15;100.00
24752;BME280;27246;52.376;4.628;2023-01-29T17:57:51;101924.84;;;5.23;100.00
24752;BME280;27246;52.376;4.628;2023-01-29T18:02:53;101914.13;;;5.20;100.00
24752;BME280;27246;52.376;4.628;2023-01-29T18:07:54;101925.56;;;5.14;100.00
24752;BME280;27246;52.376;4.628;2023-01-29T18:12:56;101904.22;;;5.19;100.00
24752;BME280;27246;52.376;4.628;2023-01-29T18:17:58;101889.72;;;5.18;100.00
24752;BME280;27246;52.376;4.628;2023-01-29T18:23:00;101877.88;;;5.18;100.00
24752;BME280;27246;52.376;4.628;2023-01-29T18:28:04;101856.31;;;5.15;100.00
24752;BME280;27246;52.376;4.628;2023-01-29T18:33:06;101838.91;;;5.16;100.00
24752;BME280;27246;52.376;4.628;2023-01-29T18:38:08;101837.41;;;5.12;100.00
24752;BME280;27246;52.376;4.628;2023-01-29T18:43:10;101846.13;;;5.17;100.00
24752;BME280;27246;52.376;4.628;2023-01-29T18:48:11;101852.31;;;5.19;100.00
24752;BME280;27246;52.376;4.628;2023-01-29T18:53:14;101851.09;;;5.23;100.00
24752;BME280;27246;52.376;4.628;2023-01-29T18:58:16;101841.53;;;5.29;100.00
24752;BME280;27246;52.376;4.628;2023-01-29T19:03:34;101839.78;;;5.28;100.00
24752;BME280;27246;52.376;4.628;2023-01-29T19:08:36;101834.69;;;5.34;100.00
24752;BME280;27246;52.376;4.628;2023-01-29T19:13:38;101831.34;;;5.31;100.00
24752;BME280;27246;52.376;4.628;2023-01-29T19:18:41;101801.41;;;5.29;100.00
24752;BME280;27246;52.376;4.628;2023-01-29T19:23:43;101818.41;;;5.33;100.00
24752;BME280;27246;52.376;4.628;2023-01-29T19:28:45;101832.44;;;5.39;100.00
24752;BME280;27246;52.376;4.628;2023-01-29T19:33:47;101824.75;;;5.45;100.00
24752;BME280;27246;52.376;4.628;2023-01-29T19:38:49;101835.63;;;5.56;100.00
24752;BME280;27246;52.376;4.628;2023-01-29T19:43:50;101819.72;;;5.61;100.00
24752;BME280;27246;52.376;4.628;2023-01-29T19:48:53;101823.94;;;5.65;100.00
24752;BME280;27246;52.376;4.628;2023-01-29T19:53:57;101805.41;;;5.69;100.00
24752;BME280;27246;52.376;4.628;2023-01-29T19:58:59;101777.69;;;5.73;100.00
24752;BME280;27246;52.376;4.628;2023-01-29T20:04:00;101802.00;;;5.76;100.00
24752;BME280;27246;52.376;4.628;2023-01-29T20:09:03;101796.69;;;5.75;100.00
24752;BME280;27246;52.376;4.628;2023-01-29T20:14:04;101798.03;;;5.80;100.00
24752;BME280;27246;52.376;4.628;2023-01-29T20:19:06;101793.56;;;5.79;100.00
24752;BME280;27246;52.376;4.628;2023-01-29T20:24:15;101796.75;;;5.85;100.00
24752;BME280;27246;52.376;4.628;2023-01-29T20:29:17;101766.69;;;5.85;100.00
24752;BME280;27246;52.376;4.628;2023-01-29T20:34:18;101776.97;;;5.92;100.00
24752;BME280;27246;52.376;4.628;2023-01-29T20:39:20;101755.09;;;5.92;100.00
24752;BME280;27246;52.376;4.628;2023-01-29T20:44:23;101764.94;;;5.95;100.00
24752;BME280;27246;52.376;4.628;2023-01-29T20:49:24;101779.78;;;6.02;100.00
24752;BME280;27246;52.376;4.628;2023-01-29T20:54:26;101788.59;;;6.06;100.00
24752;BME280;27246;52.376;4.628;2023-01-29T20:59:30;101774.06;;;6.05;100.00
24752;BME280;27246;52.376;4.628;2023-01-29T21:04:32;101767.19;;;6.11;100.00
24752;BME280;27246;52.376;4.628;2023-01-29T21:09:34;101764.19;;;6.14;100.00
24752;BME280;27246;52.376;4.628;2023-01-29T21:14:35;101759.44;;;6.16;100.00
24752;BME280;27246;52.376;4.628;2023-01-29T21:19:37;101741.28;;;6.15;100.00
24752;BME280;27246;52.376;4.628;2023-01-29T21:24:39;101697.50;;;6.15;100.00
24752;BME280;27246;52.376;4.628;2023-01-29T21:29:40;101691.19;;;6.14;100.00
24752;BME280;27246;52.376;4.628;2023-01-29T21:34:42;101662.25;;;6.12;100.00
24752;BME280;27246;52.376;4.628;2023-01-29T21:39:44;101643.34;;;6.09;100.00
24752;BME280;27246;52.376;4.628;2023-01-29T21:44:46;101637.75;;;6.10;100.00
24752;BME280;27246;52.376;4.628;2023-01-29T21:49:48;101662.66;;;6.07;100.00
24752;BME280;27246;52.376;4.628;2023-01-29T21:54:49;101681.81;;;6.07;100.00
24752;BME280;27246;52.376;4.628;2023-01-29T21:59:52;101670.25;;;6.04;100.00
24752;BME280;27246;52.376;4.628;2023-01-29T22:04:54;101660.19;;;6.04;100.00
24752;BME280;27246;52.376;4.628;2023-01-29T22:10:18;101648.25;;;6.05;100.00
24752;BME280;27246;52.376;4.628;2023-01-29T22:15:21;101655.44;;;6.06;100.00
24752;BME280;27246;52.376;4.628;2023-01-29T22:20:24;101645.97;;;6.10;100.00
24752;BME280;27246;52.376;4.628;2023-01-29T22:25:30;101623.09;;;6.11;100.00
24752;BME280;27246;52.376;4.628;2023-01-29T22:30:32;101613.31;;;6.18;100.00
24752;BME280;27246;52.376;4.628;2023-01-29T22:35:34;101596.31;;;6.15;100.00
24752;BME280;27246;52.376;4.628;2023-01-29T22:40:36;101622.97;;;6.22;100.00
24752;BME280;27246;52.376;4.628;2023-01-29T22:45:38;101603.97;;;6.21;100.00
24752;BME280;27246;52.376;4.628;2023-01-29T22:50:40;101601.81;;;6.25;100.00
24752;BME280;27246;52.376;4.628;2023-01-29T22:55:42;101598.78;;;6.18;100.00
24752;BME280;27246;52.376;4.628;2023-01-29T23:00:43;101611.31;;;6.20;100.00
24752;BME280;27246;52.376;4.628;2023-01-29T23:05:49;101613.06;;;6.21;100.00
24752;BME280;27246;52.376;4.628;2023-01-29T23:10:51;101598.78;;;6.18;100.00
24752;BME280;27246;52.376;4.628;2023-01-29T23:15:57;101568.25;;;6.22;100.00
24752;BME280;27246;52.376;4.628;2023-01-29T23:21:00;101565.94;;;6.18;100.00
24752;BME280;27246;52.376;4.628;2023-01-29T23:26:03;101550.72;;;6.25;100.00
24752;BME280;27246;52.376;4.628;2023-01-29T23:31:24;101557.31;;;6.22;100.00
24752;BME280;27246;52.376;4.628;2023-01-29T23:36:26;101552.75;;;6.23;100.00
24752;BME280;27246;52.376;4.628;2023-01-29T23:41:28;101560.06;;;6.22;100.00
24752;BME280;27246;52.376;4.628;2023-01-29T23:46:30;101565.69;;;6.31;100.00
24752;BME280;27246;52.376;4.628;2023-01-29T23:51:32;101553.31;;;6.27;100.00
24752;BME280;27246;52.376;4.628;2023-01-29T23:56:33;101549.84;;;6.25;100.00
